sensor_id;sensor_type;location;lat;lon;timestamp;temperature;humidity
37594;DHT22;23441;50.856;6.076;2022-08-18T00:02:15;16.50;99.90
37594;DHT22;23441;50.856;6.076;2022-08-18T00:04:43;16.40;99.90
37594;DHT22;23441;50.856;6.076;2022-08-18T00:07:12;16.40;99.90
37594;DHT22;23441;50.856;6.076;2022-08-18T00:09:40;16.50;99.90
37594;DHT22;23441;50.856;6.076;2022-08-18T00:12:32;16.60;99.90
37594;DHT22;23441;50.856;6.076;2022-08-18T00:15:00;16.50;99.90
37594;DHT22;23441;50.856;6.076;2022-08-18T00:17:30;16.40;99.90
37594;DHT22;23441;50.856;6.076;2022-08-18T00:19:57;16.40;99.90
37594;DHT22;23441;50.856;6.076;2022-08-18T00:22:23;16.40;99.90
37594;DHT22;23441;50.856;6.076;2022-08-18T00:24:53;16.30;99.90
37594;DHT22;23441;50.856;6.076;2022-08-18T00:27:23;16.40;99.90
37594;DHT22;23441;50.856;6.076;2022-08-18T00:29:52;16.40;99.90
37594;DHT22;23441;50.856;6.076;2022-08-18T00:32:26;16.40;99.90
37594;DHT22;23441;50.856;6.076;2022-08-18T00:35:13;16.40;99.90
37594;DHT22;23441;50.856;6.076;2022-08-18T00:37:43;16.40;99.90
37594;DHT22;23441;50.856;6.076;2022-08-18T00:40:16;16.30;99.90
37594;DHT22;23441;50.856;6.076;2022-08-18T00:42:47;16.30;99.90
37594;DHT22;23441;50.856;6.076;2022-08-18T00:45:19;16.30;99.90
37594;DHT22;23441;50.856;6.076;2022-08-18T00:47:57;16.30;99.90
37594;DHT22;23441;50.856;6.076;2022-08-18T00:50:57;16.20;99.90
37594;DHT22;23441;50.856;6.076;2022-08-18T00:53:30;16.20;99.90
37594;DHT22;23441;50.856;6.076;2022-08-18T00:56:09;16.20;99.90
37594;DHT22;23441;50.856;6.076;2022-08-18T00:58:49;16.20;99.90
37594;DHT22;23441;50.856;6.076;2022-08-18T01:01:20;16.20;99.90
37594;DHT22;23441;50.856;6.076;2022-08-18T01:03:49;16.30;99.90
37594;DHT22;23441;50.856;6.076;2022-08-18T01:06:45;16.30;99.90
37594;DHT22;23441;50.856;6.076;2022-08-18T01:09:14;16.20;99.90
37594;DHT22;23441;50.856;6.076;2022-08-18T01:11:42;16.20;99.90
37594;DHT22;23441;50.856;6.076;2022-08-18T01:14:09;16.30;99.90
37594;DHT22;23441;50.856;6.076;2022-08-18T01:16:41;16.30;99.90
37594;DHT22;23441;50.856;6.076;2022-08-18T01:19:27;16.40;99.90
37594;DHT22;23441;50.856;6.076;2022-08-18T01:22:41;16.50;99.90
37594;DHT22;23441;50.856;6.076;2022-08-18T01:25:18;16.60;99.90
37594;DHT22;23441;50.856;6.076;2022-08-18T01:28:05;16.50;99.90
37594;DHT22;23441;50.856;6.076;2022-08-18T01:30:48;16.60;99.90
37594;DHT22;23441;50.856;6.076;2022-08-18T01:33:17;16.60;99.90
37594;DHT22;23441;50.856;6.076;2022-08-18T01:35:46;16.50;99.90
37594;DHT22;23441;50.856;6.076;2022-08-18T01:38:15;16.50;99.90
37594;DHT22;23441;50.856;6.076;2022-08-18T01:40:44;16.50;99.90
37594;DHT22;23441;50.856;6.076;2022-08-18T01:43:12;16.50;99.90
37594;DHT22;23441;50.856;6.076;2022-08-18T01:45:40;16.50;99.90
37594;DHT22;23441;50.856;6.076;2022-08-18T01:48:07;16.50;99.90
37594;DHT22;23441;50.856;6.076;2022-08-18T01:50:34;16.50;99.90
37594;DHT22;23441;50.856;6.076;2022-08-18T01:53:04;16.50;99.90
37594;DHT22;23441;50.856;6.076;2022-08-18T01:55:34;16.40;99.90
37594;DHT22;23441;50.856;6.076;2022-08-18T01:58:01;16.30;99.90
37594;DHT22;23441;50.856;6.076;2022-08-18T02:00:28;16.20;99.90
37594;DHT22;23441;50.856;6.076;2022-08-18T02:02:55;16.20;99.90
37594;DHT22;23441;50.856;6.076;2022-08-18T02:05:31;16.20;99.90
37594;DHT22;23441;50.856;6.076;2022-08-18T02:08:00;16.20;99.90
37594;DHT22;23441;50.856;6.076;2022-08-18T02:10:26;16.10;99.90
37594;DHT22;23441;50.856;6.076;2022-08-18T02:12:52;16.10;99.90
37594;DHT22;23441;50.856;6.076;2022-08-18T02:15:18;16.10;99.90
37594;DHT22;23441;50.856;6.076;2022-08-18T02:17:45;16.20;99.90
37594;DHT22;23441;50.856;6.076;2022-08-18T02:20:15;16.20;99.90
37594;DHT22;23441;50.856;6.076;2022-08-18T02:22:43;16.10;99.90
37594;DHT22;23441;50.856;6.076;2022-08-18T02:25:11;16.10;99.90
37594;DHT22;23441;50.856;6.076;2022-08-18T02:27:37;16.00;99.90
37594;DHT22;23441;50.856;6.076;2022-08-18T02:30:07;16.00;99.90
37594;DHT22;23441;50.856;6.076;2022-08-18T02:32:35;16.00;99.90
37594;DHT22;23441;50.856;6.076;2022-08-18T02:35:04;16.00;99.90
37594;DHT22;23441;50.856;6.076;2022-08-18T02:37:31;16.00;99.90
37594;DHT22;23441;50.856;6.076;2022-08-18T02:39:57;16.00;99.90
37594;DHT22;23441;50.856;6.076;2022-08-18T02:42:24;15.90;99.90
37594;DHT22;23441;50.856;6.076;2022-08-18T02:44:50;15.80;99.90
37594;DHT22;23441;50.856;6.076;2022-08-18T02:47:20;15.80;99.90
37594;DHT22;23441;50.856;6.076;2022-08-18T02:49:47;15.70;99.90
37594;DHT22;23441;50.856;6.076;2022-08-18T02:52:13;15.60;99.90
37594;DHT22;23441;50.856;6.076;2022-08-18T02:54:39;15.70;99.90
37594;DHT22;23441;50.856;6.076;2022-08-18T02:57:07;15.70;99.90
37594;DHT22;23441;50.856;6.076;2022-08-18T02:59:38;15.70;99.90
37594;DHT22;23441;50.856;6.076;2022-08-18T03:02:06;15.80;99.90
37594;DHT22;23441;50.856;6.076;2022-08-18T03:04:33;15.80;99.90
37594;DHT22;23441;50.856;6.076;2022-08-18T03:07:02;15.80;99.90
37594;DHT22;23441;50.856;6.076;2022-08-18T03:09:30;15.80;99.90
37594;DHT22;23441;50.856;6.076;2022-08-18T03:11:57;15.80;99.90
37594;DHT22;23441;50.856;6.076;2022-08-18T03:14:23;15.70;99.90
37594;DHT22;23441;50.856;6.076;2022-08-18T03:16:50;15.70;99.90
37594;DHT22;23441;50.856;6.076;2022-08-18T03:19:16;15.60;99.90
37594;DHT22;23441;50.856;6.076;2022-08-18T03:21:43;15.70;99.90
37594;DHT22;23441;50.856;6.076;2022-08-18T03:24:11;15.70;99.90
37594;DHT22;23441;50.856;6.076;2022-08-18T03:26:42;15.70;99.90
37594;DHT22;23441;50.856;6.076;2022-08-18T03:29:09;15.70;99.90
37594;DHT22;23441;50.856;6.076;2022-08-18T03:31:36;15.70;99.90
37594;DHT22;23441;50.856;6.076;2022-08-18T03:34:05;15.70;99.90
37594;DHT22;23441;50.856;6.076;2022-08-18T03:36:33;15.60;99.90
37594;DHT22;23441;50.856;6.076;2022-08-18T03:39:04;15.50;99.90
37594;DHT22;23441;50.856;6.076;2022-08-18T03:41:33;15.50;99.90
37594;DHT22;23441;50.856;6.076;2022-08-18T03:44:00;15.50;99.90
37594;DHT22;23441;50.856;6.076;2022-08-18T03:46:27;15.50;99.90
37594;DHT22;23441;50.856;6.076;2022-08-18T03:48:56;15.60;99.90
37594;DHT22;23441;50.856;6.076;2022-08-18T03:51:25;15.60;99.90
37594;DHT22;23441;50.856;6.076;2022-08-18T03:53:54;15.70;99.90
37594;DHT22;23441;50.856;6.076;2022-08-18T03:56:25;15.80;99.90
37594;DHT22;23441;50.856;6.076;2022-08-18T03:58:59;15.90;99.90
37594;DHT22;23441;50.856;6.076;2022-08-18T04:01:31;15.90;99.90
37594;DHT22;23441;50.856;6.076;2022-08-18T04:04:02;16.00;99.90
37594;DHT22;23441;50.856;6.076;2022-08-18T04:06:45;16.00;99.90
37594;DHT22;23441;50.856;6.076;2022-08-18T04:09:16;16.00;99.90
37594;DHT22;23441;50.856;6.076;2022-08-18T04:11:43;15.90;99.90
37594;DHT22;23441;50.856;6.076;2022-08-18T04:14:15;16.00;99.90
37594;DHT22;23441;50.856;6.076;2022-08-18T04:16:43;16.00;99.90
37594;DHT22;23441;50.856;6.076;2022-08-18T04:19:11;16.00;99.90
37594;DHT22;23441;50.856;6.076;2022-08-18T04:21:40;16.00;99.90
37594;DHT22;23441;50.856;6.076;2022-08-18T04:24:07;16.10;99.90
37594;DHT22;23441;50.856;6.076;2022-08-18T04:26:37;16.10;99.90
37594;DHT22;23441;50.856;6.076;2022-08-18T04:29:13;16.10;99.90
37594;DHT22;23441;50.856;6.076;2022-08-18T04:31:42;16.20;99.90
37594;DHT22;23441;50.856;6.076;2022-08-18T04:34:09;16.30;99.90
37594;DHT22;23441;50.856;6.076;2022-08-18T04:36:36;16.30;99.90
37594;DHT22;23441;50.856;6.076;2022-08-18T04:39:04;16.30;99.90
37594;DHT22;23441;50.856;6.076;2022-08-18T04:41:32;16.40;99.90
37594;DHT22;23441;50.856;6.076;2022-08-18T04:44:02;16.50;99.90
37594;DHT22;23441;50.856;6.076;2022-08-18T04:46:34;16.50;99.90
37594;DHT22;23441;50.856;6.076;2022-08-18T04:49:09;16.60;99.90
37594;DHT22;23441;50.856;6.076;2022-08-18T04:51:40;16.60;99.90
37594;DHT22;23441;50.856;6.076;2022-08-18T04:54:07;16.50;99.90
37594;DHT22;23441;50.856;6.076;2022-08-18T04:56:37;16.50;99.90
37594;DHT22;23441;50.856;6.076;2022-08-18T04:59:07;16.60;99.90
37594;DHT22;23441;50.856;6.076;2022-08-18T05:01:46;16.60;99.90
37594;DHT22;23441;50.856;6.076;2022-08-18T05:04:13;16.50;99.90
37594;DHT22;23441;50.856;6.076;2022-08-18T05:06:41;16.60;99.90
37594;DHT22;23441;50.856;6.076;2022-08-18T05:09:09;16.60;99.90
37594;DHT22;23441;50.856;6.076;2022-08-18T05:11:36;16.60;99.90
37594;DHT22;23441;50.856;6.076;2022-08-18T05:14:05;16.60;99.90
37594;DHT22;23441;50.856;6.076;2022-08-18T05:16:33;16.60;99.90
37594;DHT22;23441;50.856;6.076;2022-08-18T05:19:06;16.60;99.90
37594;DHT22;23441;50.856;6.076;2022-08-18T05:21:33;16.60;99.90
37594;DHT22;23441;50.856;6.076;2022-08-18T05:24:02;16.60;99.90
37594;DHT22;23441;50.856;6.076;2022-08-18T05:26:29;16.70;99.90
37594;DHT22;23441;50.856;6.076;2022-08-18T05:28:55;16.70;99.90
37594;DHT22;23441;50.856;6.076;2022-08-18T05:31:24;16.80;99.90
37594;DHT22;23441;50.856;6.076;2022-08-18T05:33:53;16.70;99.90
37594;DHT22;23441;50.856;6.076;2022-08-18T05:40:05;16.70;99.90
37594;DHT22;23441;50.856;6.076;2022-08-18T05:42:36;16.70;99.90
37594;DHT22;23441;50.856;6.076;2022-08-18T05:45:10;16.80;99.90
37594;DHT22;23441;50.856;6.076;2022-08-18T05:47:38;16.70;99.90
37594;DHT22;23441;50.856;6.076;2022-08-18T05:50:15;16.80;99.90
37594;DHT22;23441;50.856;6.076;2022-08-18T05:56:02;16.80;99.90
37594;DHT22;23441;50.856;6.076;2022-08-18T05:58:50;16.80;99.90
37594;DHT22;23441;50.856;6.076;2022-08-18T06:01:31;16.80;99.90
37594;DHT22;23441;50.856;6.076;2022-08-18T06:04:08;16.90;99.90
37594;DHT22;23441;50.856;6.076;2022-08-18T06:06:38;16.90;99.90
37594;DHT22;23441;50.856;6.076;2022-08-18T06:09:31;16.90;99.90
37594;DHT22;23441;50.856;6.076;2022-08-18T06:12:30;16.80;99.90
37594;DHT22;23441;50.856;6.076;2022-08-18T06:15:24;16.80;99.90
37594;DHT22;23441;50.856;6.076;2022-08-18T06:18:36;16.80;99.90
37594;DHT22;23441;50.856;6.076;2022-08-18T06:25:46;16.90;99.90
37594;DHT22;23441;50.856;6.076;2022-08-18T06:27:35;16.90;99.90
37594;DHT22;23441;50.856;6.076;2022-08-18T06:30:20;17.00;99.90
37594;DHT22;23441;50.856;6.076;2022-08-18T06:35:54;17.00;99.90
37594;DHT22;23441;50.856;6.076;2022-08-18T06:38:34;17.00;99.90
37594;DHT22;23441;50.856;6.076;2022-08-18T06:41:15;17.00;99.90
37594;DHT22;23441;50.856;6.076;2022-08-18T06:46:40;17.00;99.90
37594;DHT22;23441;50.856;6.076;2022-08-18T06:49:11;17.00;99.90
37594;DHT22;23441;50.856;6.076;2022-08-18T06:51:41;17.00;99.90
37594;DHT22;23441;50.856;6.076;2022-08-18T06:54:25;17.00;99.90
37594;DHT22;23441;50.856;6.076;2022-08-18T06:56:55;17.10;99.90
37594;DHT22;23441;50.856;6.076;2022-08-18T07:02:19;17.20;99.90
37594;DHT22;23441;50.856;6.076;2022-08-18T07:05:07;17.30;99.90
37594;DHT22;23441;50.856;6.076;2022-08-18T07:08:04;17.30;99.90
37594;DHT22;23441;50.856;6.076;2022-08-18T07:10:42;17.30;99.90
37594;DHT22;23441;50.856;6.076;2022-08-18T07:13:22;17.40;99.90
37594;DHT22;23441;50.856;6.076;2022-08-18T07:15:50;17.40;99.90
37594;DHT22;23441;50.856;6.076;2022-08-18T07:18:26;17.40;99.90
37594;DHT22;23441;50.856;6.076;2022-08-18T07:21:00;17.40;99.90
37594;DHT22;23441;50.856;6.076;2022-08-18T07:23:35;17.50;99.90
37594;DHT22;23441;50.856;6.076;2022-08-18T07:26:10;17.60;99.90
37594;DHT22;23441;50.856;6.076;2022-08-18T07:28:49;17.50;99.90
37594;DHT22;23441;50.856;6.076;2022-08-18T07:34:05;17.60;99.90
37594;DHT22;23441;50.856;6.076;2022-08-18T07:36:45;17.70;99.90
37594;DHT22;23441;50.856;6.076;2022-08-18T07:39:46;17.70;99.90
37594;DHT22;23441;50.856;6.076;2022-08-18T07:45:13;17.80;99.90
37594;DHT22;23441;50.856;6.076;2022-08-18T07:57:06;17.90;99.90
37594;DHT22;23441;50.856;6.076;2022-08-18T08:05:16;18.00;99.90
37594;DHT22;23441;50.856;6.076;2022-08-18T08:09:10;17.90;99.90
37594;DHT22;23441;50.856;6.076;2022-08-18T08:11:54;17.90;99.90
37594;DHT22;23441;50.856;6.076;2022-08-18T08:14:41;18.00;99.90
37594;DHT22;23441;50.856;6.076;2022-08-18T08:17:29;18.10;99.90
37594;DHT22;23441;50.856;6.076;2022-08-18T08:23:08;18.10;99.90
37594;DHT22;23441;50.856;6.076;2022-08-18T08:25:54;18.30;99.90
37594;DHT22;23441;50.856;6.076;2022-08-18T08:37:11;18.30;99.90
37594;DHT22;23441;50.856;6.076;2022-08-18T08:42:34;18.40;99.90
37594;DHT22;23441;50.856;6.076;2022-08-18T08:45:31;18.40;99.90
37594;DHT22;23441;50.856;6.076;2022-08-18T08:53:31;18.50;99.90
37594;DHT22;23441;50.856;6.076;2022-08-18T08:56:02;18.60;99.90
37594;DHT22;23441;50.856;6.076;2022-08-18T08:58:51;18.70;99.90
37594;DHT22;23441;50.856;6.076;2022-08-18T09:15:35;19.10;99.90
37594;DHT22;23441;50.856;6.076;2022-08-18T09:18:31;19.10;99.90
37594;DHT22;23441;50.856;6.076;2022-08-18T09:26:52;19.10;99.90
37594;DHT22;23441;50.856;6.076;2022-08-18T09:29:26;19.20;99.90
37594;DHT22;23441;50.856;6.076;2022-08-18T09:38:13;19.20;99.90
37594;DHT22;23441;50.856;6.076;2022-08-18T09:41:08;19.20;99.90
37594;DHT22;23441;50.856;6.076;2022-08-18T09:43:59;19.30;99.90
37594;DHT22;23441;50.856;6.076;2022-08-18T09:51:52;19.50;99.90
37594;DHT22;23441;50.856;6.076;2022-08-18T09:54:25;19.70;99.90
37594;DHT22;23441;50.856;6.076;2022-08-18T09:57:06;19.90;99.90
37594;DHT22;23441;50.856;6.076;2022-08-18T10:10:52;20.30;99.90
37594;DHT22;23441;50.856;6.076;2022-08-18T10:19:18;21.00;99.90
37594;DHT22;23441;50.856;6.076;2022-08-18T10:24:51;21.60;99.90
37594;DHT22;23441;50.856;6.076;2022-08-18T10:33:07;22.10;99.90
37594;DHT22;23441;50.856;6.076;2022-08-18T10:38:24;22.90;99.90
37594;DHT22;23441;50.856;6.076;2022-08-18T10:40:59;23.00;99.90
37594;DHT22;23441;50.856;6.076;2022-08-18T10:43:40;22.90;99.90
37594;DHT22;23441;50.856;6.076;2022-08-18T10:46:39;23.00;99.90
37594;DHT22;23441;50.856;6.076;2022-08-18T10:49:19;22.80;99.90
37594;DHT22;23441;50.856;6.076;2022-08-18T10:52:08;22.90;99.90
37594;DHT22;23441;50.856;6.076;2022-08-18T10:54:53;23.10;99.90
37594;DHT22;23441;50.856;6.076;2022-08-18T10:57:26;23.30;99.90
37594;DHT22;23441;50.856;6.076;2022-08-18T11:00:04;23.60;99.90
37594;DHT22;23441;50.856;6.076;2022-08-18T11:05:39;23.80;99.90
37594;DHT22;23441;50.856;6.076;2022-08-18T11:08:13;23.80;99.90
37594;DHT22;23441;50.856;6.076;2022-08-18T11:10:47;24.20;99.90
37594;DHT22;23441;50.856;6.076;2022-08-18T11:13:47;24.20;99.90
37594;DHT22;23441;50.856;6.076;2022-08-18T11:19:10;24.10;99.90
37594;DHT22;23441;50.856;6.076;2022-08-18T11:29:24;23.60;99.90
37594;DHT22;23441;50.856;6.076;2022-08-18T11:37:45;23.10;99.90
37594;DHT22;23441;50.856;6.076;2022-08-18T11:43:03;23.50;99.90
37594;DHT22;23441;50.856;6.076;2022-08-18T11:58:48;23.90;99.90
37594;DHT22;23441;50.856;6.076;2022-08-18T12:17:21;23.80;99.90
37594;DHT22;23441;50.856;6.076;2022-08-18T12:19:47;23.80;99.90
37594;DHT22;23441;50.856;6.076;2022-08-18T12:22:20;23.80;99.90
37594;DHT22;23441;50.856;6.076;2022-08-18T12:24:48;23.90;99.90
37594;DHT22;23441;50.856;6.076;2022-08-18T12:27:17;24.10;99.90
37594;DHT22;23441;50.856;6.076;2022-08-18T12:29:45;24.20;99.90
37594;DHT22;23441;50.856;6.076;2022-08-18T12:32:11;24.20;99.90
37594;DHT22;23441;50.856;6.076;2022-08-18T12:34:37;24.10;99.90
37594;DHT22;23441;50.856;6.076;2022-08-18T12:37:07;24.10;99.90
37594;DHT22;23441;50.856;6.076;2022-08-18T12:39:35;24.00;99.90
37594;DHT22;23441;50.856;6.076;2022-08-18T12:42:01;23.90;99.90
37594;DHT22;23441;50.856;6.076;2022-08-18T12:44:27;23.70;99.90
37594;DHT22;23441;50.856;6.076;2022-08-18T12:46:53;23.70;99.90
37594;DHT22;23441;50.856;6.076;2022-08-18T12:49:22;23.80;99.90
37594;DHT22;23441;50.856;6.076;2022-08-18T12:51:50;23.80;99.90
37594;DHT22;23441;50.856;6.076;2022-08-18T12:54:17;24.00;99.90
37594;DHT22;23441;50.856;6.076;2022-08-18T12:56:47;24.10;99.90
37594;DHT22;23441;50.856;6.076;2022-08-18T12:59:15;24.50;99.90
37594;DHT22;23441;50.856;6.076;2022-08-18T13:01:41;24.70;99.90
37594;DHT22;23441;50.856;6.076;2022-08-18T13:04:08;24.70;99.90
37594;DHT22;23441;50.856;6.076;2022-08-18T13:06:37;24.60;99.90
37594;DHT22;23441;50.856;6.076;2022-08-18T13:09:06;25.30;99.90
37594;DHT22;23441;50.856;6.076;2022-08-18T13:11:32;25.50;99.90
37594;DHT22;23441;50.856;6.076;2022-08-18T13:13:58;25.70;99.90
37594;DHT22;23441;50.856;6.076;2022-08-18T13:16:26;25.40;99.90
37594;DHT22;23441;50.856;6.076;2022-08-18T13:18:53;25.60;99.90
37594;DHT22;23441;50.856;6.076;2022-08-18T13:21:19;26.10;99.90
37594;DHT22;23441;50.856;6.076;2022-08-18T13:23:45;26.00;99.90
37594;DHT22;23441;50.856;6.076;2022-08-18T13:26:23;25.90;99.90
37594;DHT22;23441;50.856;6.076;2022-08-18T13:28:50;26.00;99.90
37594;DHT22;23441;50.856;6.076;2022-08-18T13:31:16;25.80;99.90
37594;DHT22;23441;50.856;6.076;2022-08-18T13:33:42;26.20;99.90
37594;DHT22;23441;50.856;6.076;2022-08-18T13:36:08;25.80;99.90
37594;DHT22;23441;50.856;6.076;2022-08-18T13:38:34;25.80;99.90
37594;DHT22;23441;50.856;6.076;2022-08-18T13:41:02;25.40;99.90
37594;DHT22;23441;50.856;6.076;2022-08-18T13:43:39;25.10;99.90
37594;DHT22;23441;50.856;6.076;2022-08-18T13:46:15;25.10;99.90
37594;DHT22;23441;50.856;6.076;2022-08-18T13:48:43;24.80;99.90
37594;DHT22;23441;50.856;6.076;2022-08-18T13:51:15;25.10;99.90
37594;DHT22;23441;50.856;6.076;2022-08-18T13:53:45;24.80;99.90
37594;DHT22;23441;50.856;6.076;2022-08-18T13:56:11;24.80;99.90
37594;DHT22;23441;50.856;6.076;2022-08-18T13:58:37;24.80;99.90
37594;DHT22;23441;50.856;6.076;2022-08-18T14:01:05;24.90;99.90
37594;DHT22;23441;50.856;6.076;2022-08-18T14:03:33;25.40;99.90
37594;DHT22;23441;50.856;6.076;2022-08-18T14:06:01;25.80;99.90
37594;DHT22;23441;50.856;6.076;2022-08-18T14:08:29;26.10;99.90
37594;DHT22;23441;50.856;6.076;2022-08-18T14:10:58;26.20;99.90
37594;DHT22;23441;50.856;6.076;2022-08-18T14:13:26;26.40;99.90
37594;DHT22;23441;50.856;6.076;2022-08-18T14:15:55;26.30;99.90
37594;DHT22;23441;50.856;6.076;2022-08-18T14:18:24;25.80;99.90
37594;DHT22;23441;50.856;6.076;2022-08-18T14:20:51;26.00;99.90
37594;DHT22;23441;50.856;6.076;2022-08-18T14:23:36;26.30;99.90
37594;DHT22;23441;50.856;6.076;2022-08-18T14:26:11;26.40;99.90
37594;DHT22;23441;50.856;6.076;2022-08-18T14:28:55;26.40;99.90
37594;DHT22;23441;50.856;6.076;2022-08-18T14:31:21;26.20;99.90
37594;DHT22;23441;50.856;6.076;2022-08-18T14:33:47;25.90;99.90
37594;DHT22;23441;50.856;6.076;2022-08-18T14:36:14;26.20;99.90
37594;DHT22;23441;50.856;6.076;2022-08-18T14:38:41;26.40;99.90
37594;DHT22;23441;50.856;6.076;2022-08-18T14:41:09;26.50;99.90
37594;DHT22;23441;50.856;6.076;2022-08-18T14:43:36;26.40;99.90
37594;DHT22;23441;50.856;6.076;2022-08-18T14:46:03;26.50;99.90
37594;DHT22;23441;50.856;6.076;2022-08-18T14:48:31;26.50;99.90
37594;DHT22;23441;50.856;6.076;2022-08-18T14:50:58;26.30;99.90
37594;DHT22;23441;50.856;6.076;2022-08-18T14:53:29;26.00;99.90
37594;DHT22;23441;50.856;6.076;2022-08-18T14:55:56;25.90;99.90
37594;DHT22;23441;50.856;6.076;2022-08-18T14:58:25;25.90;99.90
37594;DHT22;23441;50.856;6.076;2022-08-18T15:00:59;25.90;99.90
37594;DHT22;23441;50.856;6.076;2022-08-18T15:03:28;25.80;99.90
37594;DHT22;23441;50.856;6.076;2022-08-18T15:05:56;26.30;99.90
37594;DHT22;23441;50.856;6.076;2022-08-18T15:08:22;26.60;99.90
37594;DHT22;23441;50.856;6.076;2022-08-18T15:10:48;26.50;99.90
37594;DHT22;23441;50.856;6.076;2022-08-18T15:13:15;26.80;99.90
37594;DHT22;23441;50.856;6.076;2022-08-18T15:15:41;27.10;99.90
37594;DHT22;23441;50.856;6.076;2022-08-18T15:18:09;27.10;99.50
37594;DHT22;23441;50.856;6.076;2022-08-18T15:20:35;26.90;99.90
37594;DHT22;23441;50.856;6.076;2022-08-18T15:23:22;26.90;99.90
37594;DHT22;23441;50.856;6.076;2022-08-18T15:26:06;26.80;99.90
37594;DHT22;23441;50.856;6.076;2022-08-18T15:28:33;26.70;99.90
37594;DHT22;23441;50.856;6.076;2022-08-18T15:30:59;26.60;99.20
37594;DHT22;23441;50.856;6.076;2022-08-18T15:33:24;26.70;98.90
37594;DHT22;23441;50.856;6.076;2022-08-18T15:35:53;26.80;98.60
37594;DHT22;23441;50.856;6.076;2022-08-18T15:38:22;26.80;98.90
37594;DHT22;23441;50.856;6.076;2022-08-18T15:40:54;26.70;99.90
37594;DHT22;23441;50.856;6.076;2022-08-18T15:43:29;26.60;98.10
37594;DHT22;23441;50.856;6.076;2022-08-18T15:45:58;26.40;99.90
37594;DHT22;23441;50.856;6.076;2022-08-18T15:48:26;26.40;99.90
37594;DHT22;23441;50.856;6.076;2022-08-18T15:50:53;26.40;99.00
37594;DHT22;23441;50.856;6.076;2022-08-18T15:53:22;26.30;99.90
37594;DHT22;23441;50.856;6.076;2022-08-18T15:55:50;26.30;99.90
37594;DHT22;23441;50.856;6.076;2022-08-18T15:58:18;26.30;99.90
37594;DHT22;23441;50.856;6.076;2022-08-18T16:00:46;26.40;99.90
37594;DHT22;23441;50.856;6.076;2022-08-18T16:03:14;26.30;99.90
37594;DHT22;23441;50.856;6.076;2022-08-18T16:05:52;26.40;99.90
37594;DHT22;23441;50.856;6.076;2022-08-18T16:08:20;26.30;99.70
37594;DHT22;23441;50.856;6.076;2022-08-18T16:10:47;26.40;99.80
37594;DHT22;23441;50.856;6.076;2022-08-18T16:13:13;26.40;99.20
37594;DHT22;23441;50.856;6.076;2022-08-18T16:15:41;26.20;98.50
37594;DHT22;23441;50.856;6.076;2022-08-18T16:18:11;26.10;99.90
37594;DHT22;23441;50.856;6.076;2022-08-18T16:20:37;26.20;98.60
37594;DHT22;23441;50.856;6.076;2022-08-18T16:23:04;26.20;99.90
37594;DHT22;23441;50.856;6.076;2022-08-18T16:25:31;26.10;98.20
37594;DHT22;23441;50.856;6.076;2022-08-18T16:27:58;26.10;99.30
37594;DHT22;23441;50.856;6.076;2022-08-18T16:30:27;26.10;99.90
37594;DHT22;23441;50.856;6.076;2022-08-18T16:32:53;26.10;99.10
37594;DHT22;23441;50.856;6.076;2022-08-18T16:35:20;26.10;98.80
37594;DHT22;23441;50.856;6.076;2022-08-18T16:37:47;26.10;98.50
37594;DHT22;23441;50.856;6.076;2022-08-18T16:40:16;25.80;99.10
37594;DHT22;23441;50.856;6.076;2022-08-18T16:42:43;25.80;98.80
37594;DHT22;23441;50.856;6.076;2022-08-18T16:45:11;25.70;99.90
37594;DHT22;23441;50.856;6.076;2022-08-18T16:47:38;25.90;99.90
37594;DHT22;23441;50.856;6.076;2022-08-18T16:50:23;25.80;99.90
37594;DHT22;23441;50.856;6.076;2022-08-18T16:52:50;25.80;99.90
37594;DHT22;23441;50.856;6.076;2022-08-18T16:55:16;25.90;99.90
37594;DHT22;23441;50.856;6.076;2022-08-18T16:57:43;25.90;99.90
37594;DHT22;23441;50.856;6.076;2022-08-18T17:00:29;25.80;98.90
37594;DHT22;23441;50.856;6.076;2022-08-18T17:03:15;25.60;99.30
37594;DHT22;23441;50.856;6.076;2022-08-18T17:06:06;25.50;98.60
37594;DHT22;23441;50.856;6.076;2022-08-18T17:08:41;25.30;99.30
37594;DHT22;23441;50.856;6.076;2022-08-18T17:11:10;25.30;99.40
37594;DHT22;23441;50.856;6.076;2022-08-18T17:13:39;25.40;99.90
37594;DHT22;23441;50.856;6.076;2022-08-18T17:16:06;25.40;99.90
37594;DHT22;23441;50.856;6.076;2022-08-18T17:18:32;25.40;99.90
37594;DHT22;23441;50.856;6.076;2022-08-18T17:21:08;25.40;99.90
37594;DHT22;23441;50.856;6.076;2022-08-18T17:23:37;25.30;99.90
37594;DHT22;23441;50.856;6.076;2022-08-18T17:26:05;25.30;99.90
37594;DHT22;23441;50.856;6.076;2022-08-18T17:28:40;25.20;99.90
37594;DHT22;23441;50.856;6.076;2022-08-18T17:31:09;25.20;99.90
37594;DHT22;23441;50.856;6.076;2022-08-18T17:33:38;25.20;99.90
37594;DHT22;23441;50.856;6.076;2022-08-18T17:36:08;25.00;99.90
37594;DHT22;23441;50.856;6.076;2022-08-18T17:38:48;25.00;99.90
37594;DHT22;23441;50.856;6.076;2022-08-18T17:41:18;24.90;99.90
37594;DHT22;23441;50.856;6.076;2022-08-18T17:43:46;24.80;99.90
37594;DHT22;23441;50.856;6.076;2022-08-18T17:46:25;24.70;99.90
37594;DHT22;23441;50.856;6.076;2022-08-18T17:49:13;24.60;99.90
37594;DHT22;23441;50.856;6.076;2022-08-18T17:51:46;24.70;99.90
37594;DHT22;23441;50.856;6.076;2022-08-18T17:54:34;24.60;99.90
37594;DHT22;23441;50.856;6.076;2022-08-18T17:57:13;24.60;99.90
37594;DHT22;23441;50.856;6.076;2022-08-18T18:02:30;24.50;99.90
37594;DHT22;23441;50.856;6.076;2022-08-18T18:05:00;24.50;99.90
37594;DHT22;23441;50.856;6.076;2022-08-18T18:07:55;24.40;99.90
37594;DHT22;23441;50.856;6.076;2022-08-18T18:10:38;24.20;99.90
37594;DHT22;23441;50.856;6.076;2022-08-18T18:13:21;24.10;99.90
37594;DHT22;23441;50.856;6.076;2022-08-18T18:16:17;24.00;99.90
37594;DHT22;23441;50.856;6.076;2022-08-18T18:18:44;24.00;99.90
37594;DHT22;23441;50.856;6.076;2022-08-18T18:23:45;23.70;99.90
37594;DHT22;23441;50.856;6.076;2022-08-18T18:29:27;23.50;99.90
37594;DHT22;23441;50.856;6.076;2022-08-18T18:31:56;23.50;99.90
37594;DHT22;23441;50.856;6.076;2022-08-18T18:34:42;23.40;99.90
37594;DHT22;23441;50.856;6.076;2022-08-18T18:37:25;23.30;99.90
37594;DHT22;23441;50.856;6.076;2022-08-18T18:39:59;23.20;99.90
37594;DHT22;23441;50.856;6.076;2022-08-18T18:42:31;23.10;99.90
37594;DHT22;23441;50.856;6.076;2022-08-18T18:45:04;23.00;99.90
37594;DHT22;23441;50.856;6.076;2022-08-18T18:50:28;22.80;99.90
37594;DHT22;23441;50.856;6.076;2022-08-18T18:56:34;22.60;99.90
37594;DHT22;23441;50.856;6.076;2022-08-18T19:07:58;22.10;99.90
37594;DHT22;23441;50.856;6.076;2022-08-18T19:13:20;21.80;99.90
37594;DHT22;23441;50.856;6.076;2022-08-18T19:15:53;21.70;99.90
37594;DHT22;23441;50.856;6.076;2022-08-18T19:18:37;21.60;99.90
37594;DHT22;23441;50.856;6.076;2022-08-18T19:21:12;21.50;99.90
37594;DHT22;23441;50.856;6.076;2022-08-18T19:26:21;21.30;99.90